Angel Albino Corzo International Airport

Airport
ICAO code: 
MMTG
IATA Code: 
TGZ
Summary
ICAO Region: 
CARSAM
Territory: 
Location: 
Chiapa de Corzo, Chiapas
Serving: 
Tuxtla Gutierrez
Elevation: 
1499 ft
Coordinates: 
Aerial View: 
16° 33' 42.559" N, 93° 1' 33.892" W
Metar
Observation
MMTG 261943Z 32013G24KT 7SM SCT045 25/18 A3001 RMK 8/700
Station
Tuxtla Gutierrez, Chis.
Date/Time
2021-11-26 19:43:00
Wind direction
320°
Wind speed
13 kts
Lowest cloud amount
scattered clouds
Temperature
25°C
Dew point
18°C
Humidity
65%
Weather condition
n/a

Ángel Albino Corzo International Airport, also known as Tuxtla Gutierrez International Airport, is an international airport serving the Mexican municipality of Chiapa de Corzo, Chiapas.

Climatology

Tropical savannah climate (Köppen climate classification Aw)

Runways

Designator Length Width Surface Rops
9/27 0 0 UNK No/No
16/34 0 0 UNK No/No
14/32 2500 45 ASP No/No
Airport map: 
Aerial View: 

SKYbrary Partners:

Safety knowledge contributed by: